Time;durP1;ratioP1;P1;durP2;ratioP2;P2;SDS_P1;SDS_P2;PMS_P1;PMS_P2;Temp;Humidity;BMP_temperature;BMP_pressure;BME280_temperature;BME280_humidity;BME280_pressure;Samples;Min_cycle;Max_cycle;Signal;HPM_P1;HPM_P2
2022/01/05 00:00:53;;;;;;;9.07;5.00;;;;;;;;;;6274319;28;20021;-89
2022/01/05 00:03:54;;;;;;;8.65;5.15;;;;;;;;;;6268413;28;20552;-88
2022/01/05 00:06:54;;;;;;;12.48;5.10;;;;;;;;;;6264600;28;20090;-89
2022/01/05 00:09:54;;;;;;;16.33;6.53;;;;;;;;;;6272920;28;20025;-88
2022/01/05 00:12:54;;;;;;;7.85;3.35;;;;;;;;;;6256723;28;20116;-88
2022/01/05 00:15:55;;;;;;;9.20;5.10;;;;;;;;;;6248531;28;20021;-88
2022/01/05 00:18:55;;;;;;;13.20;6.43;;;;;;;;;;6248937;28;20047;-88
2022/01/05 00:21:55;;;;;;;11.25;5.88;;;;;;;;;;6247556;28;20068;-89
2022/01/05 00:24:56;;;;;;;11.60;6.70;;;;;;;;;;6252456;28;20021;-88
2022/01/05 00:27:56;;;;;;;10.07;5.15;;;;;;;;;;6272449;28;20013;-88
2022/01/05 00:30:56;;;;;;;10.32;4.95;;;;;;;;;;6272127;28;20074;-88
2022/01/05 00:33:56;;;;;;;11.23;4.88;;;;;;;;;;6272165;28;20027;-88
2022/01/05 00:36:57;;;;;;;10.30;5.65;;;;;;;;;;6271722;28;20468;-88
2022/01/05 00:39:57;;;;;;;8.90;5.05;;;;;;;;;;6273648;28;20047;-88
2022/01/05 00:42:57;;;;;;;8.98;5.05;;;;;;;;;;6269653;28;20021;-88
2022/01/05 00:45:58;;;;;;;10.82;5.90;;;;;;;;;;6265508;28;20021;-88
2022/01/05 00:48:58;;;;;;;11.10;6.10;;;;;;;;;;6272780;28;20016;-88
2022/01/05 00:51:58;;;;;;;9.27;5.75;;;;;;;;;;6272109;28;20562;-88
2022/01/05 00:54:59;;;;;;;10.77;5.45;;;;;;;;;;6270981;28;20083;-88
2022/01/05 00:57:59;;;;;;;9.02;3.72;;;;;;;;;;6272016;28;20032;-88
2022/01/05 01:00:59;;;;;;;9.63;5.60;;;;;;;;;;6270996;28;20145;-88
2022/01/05 01:03:59;;;;;;;11.38;4.88;;;;;;;;;;6272133;28;20033;-88
2022/01/05 01:07:00;;;;;;;10.70;6.03;;;;;;;;;;6271191;28;20021;-88
2022/01/05 01:10:00;;;;;;;12.00;6.20;;;;;;;;;;6270894;28;20028;-88
2022/01/05 01:13:00;;;;;;;12.23;6.10;;;;;;;;;;6270941;28;20017;-88
2022/01/05 01:16:01;;;;;;;9.07;4.70;;;;;;;;;;6270870;28;20017;-88
2022/01/05 01:19:01;;;;;;;13.50;6.88;;;;;;;;;;6252975;28;20108;-88
2022/01/05 01:22:01;;;;;;;13.02;7.28;;;;;;;;;;6246085;28;20018;-88
2022/01/05 01:25:02;;;;;;;14.95;7.82;;;;;;;;;;6252556;28;20084;-88
2022/01/05 01:28:03;;;;;;;7.87;4.63;;;;;;;;;;6270542;28;20017;-88
2022/01/05 01:31:03;;;;;;;13.20;4.72;;;;;;;;;;6270676;28;20259;-88
2022/01/05 01:34:03;;;;;;;7.03;4.88;;;;;;;;;;6271393;28;20040;-88
2022/01/05 01:37:04;;;;;;;9.35;5.32;;;;;;;;;;6269452;28;20028;-88
2022/01/05 01:40:05;;;;;;;11.45;5.65;;;;;;;;;;6270340;28;20270;-88
2022/01/05 01:43:06;;;;;;;12.20;4.97;;;;;;;;;;6248917;28;20036;-88
2022/01/05 01:46:07;;;;;;;9.82;4.10;;;;;;;;;;6249230;28;20480;-88
2022/01/05 01:49:08;;;;;;;9.90;4.72;;;;;;;;;;6245291;28;20428;-88
2022/01/05 01:52:08;;;;;;;6.72;4.07;;;;;;;;;;6246700;28;20075;-88
2022/01/05 01:55:10;;;;;;;5.53;3.25;;;;;;;;;;6245117;28;20017;-87
2022/01/05 01:58:10;;;;;;;9.45;4.35;;;;;;;;;;6264798;28;20492;-87
2022/01/05 02:01:13;;;;;;;8.60;5.40;;;;;;;;;;6259225;28;20025;-88
2022/01/05 02:04:13;;;;;;;11.48;6.28;;;;;;;;;;6254321;28;20033;-88
2022/01/05 02:07:13;;;;;;;12.15;5.47;;;;;;;;;;6256397;28;20041;-88
2022/01/05 02:10:14;;;;;;;11.93;5.97;;;;;;;;;;6251001;28;20013;-88
2022/01/05 02:13:14;;;;;;;11.95;5.32;;;;;;;;;;6269748;28;20025;-88
2022/01/05 02:16:25;;;;;;;13.40;5.95;;;;;;;;;;6270372;28;20036;-88
2022/01/05 02:19:25;;;;;;;14.55;7.22;;;;;;;;;;6265552;28;20025;-88
2022/01/05 02:22:26;;;;;;;15.55;7.22;;;;;;;;;;6268977;28;20471;-88
2022/01/05 02:25:26;;;;;;;15.15;8.80;;;;;;;;;;6261599;28;20018;-88
2022/01/05 02:28:27;;;;;;;15.35;8.75;;;;;;;;;;6268292;28;20023;-88
2022/01/05 02:31:27;;;;;;;16.63;8.73;;;;;;;;;;6258833;28;20083;-88
2022/01/05 02:34:28;;;;;;;14.38;8.40;;;;;;;;;;6244964;28;20021;-88
2022/01/05 02:37:28;;;;;;;22.55;11.68;;;;;;;;;;6248906;28;20595;-88
2022/01/05 02:40:28;;;;;;;13.73;7.78;;;;;;;;;;6269327;28;20021;-88
2022/01/05 02:43:28;;;;;;;18.95;10.70;;;;;;;;;;6255106;28;20029;-88
2022/01/05 02:46:29;;;;;;;20.95;9.98;;;;;;;;;;6251255;28;20021;-88
2022/01/05 02:49:29;;;;;;;19.13;9.98;;;;;;;;;;6244237;28;20012;-88
2022/01/05 02:52:30;;;;;;;15.23;9.40;;;;;;;;;;6244029;28;20121;-88
2022/01/05 02:55:30;;;;;;;17.90;9.93;;;;;;;;;;6243659;28;20036;-88
2022/01/05 02:58:30;;;;;;;14.23;8.07;;;;;;;;;;6267970;28;20036;-88
2022/01/05 03:01:31;;;;;;;14.55;7.75;;;;;;;;;;6270006;28;20082;-88
2022/01/05 03:04:31;;;;;;;14.05;7.97;;;;;;;;;;6267674;28;20408;-89
2022/01/05 03:07:34;;;;;;;13.57;8.55;;;;;;;;;;6268573;28;20392;-88
2022/01/05 03:10:35;;;;;;;16.17;8.10;;;;;;;;;;6270127;28;20016;-88
2022/01/05 03:13:35;;;;;;;12.50;7.95;;;;;;;;;;6268390;28;20029;-88
2022/01/05 03:16:36;;;;;;;16.20;8.50;;;;;;;;;;6269690;28;20122;-88
2022/01/05 03:19:36;;;;;;;15.68;9.38;;;;;;;;;;6246207;28;20029;-88
2022/01/05 03:22:37;;;;;;;17.38;9.55;;;;;;;;;;6244441;28;20017;-88
2022/01/05 03:25:37;;;;;;;15.85;9.95;;;;;;;;;;6243939;28;20021;-88
2022/01/05 03:28:37;;;;;;;20.02;10.55;;;;;;;;;;6268705;28;20028;-88
2022/01/05 03:31:38;;;;;;;22.98;11.45;;;;;;;;;;6269905;28;20021;-88
2022/01/05 03:34:38;;;;;;;19.05;10.20;;;;;;;;;;6253850;28;20550;-88
2022/01/05 03:37:39;;;;;;;22.30;10.45;;;;;;;;;;6248124;28;20072;-88
2022/01/05 03:40:39;;;;;;;16.67;8.75;;;;;;;;;;6254272;28;20021;-88
2022/01/05 03:43:39;;;;;;;16.98;9.35;;;;;;;;;;6259733;28;20024;-88
2022/01/05 03:46:40;;;;;;;15.52;9.05;;;;;;;;;;6268197;28;20018;-88
2022/01/05 03:49:40;;;;;;;18.58;9.85;;;;;;;;;;6268209;28;20480;-88
2022/01/05 03:52:40;;;;;;;15.10;9.32;;;;;;;;;;6247300;28;20112;-88
2022/01/05 03:55:41;;;;;;;20.00;9.60;;;;;;;;;;6243531;28;20027;-88
2022/01/05 03:58:42;;;;;;;17.15;11.45;;;;;;;;;;6249622;28;20021;-88
2022/01/05 04:01:43;;;;;;;14.73;10.00;;;;;;;;;;6250533;28;20056;-88
2022/01/05 04:04:43;;;;;;;21.42;11.73;;;;;;;;;;6252783;28;20017;-88
2022/01/05 04:07:43;;;;;;;19.13;10.60;;;;;;;;;;6248310;28;20362;-88
2022/01/05 04:10:44;;;;;;;18.67;10.52;;;;;;;;;;6253035;28;20016;-88
2022/01/05 04:13:44;;;;;;;18.13;10.98;;;;;;;;;;6258650;28;20026;-88
2022/01/05 04:16:44;;;;;;;16.23;10.70;;;;;;;;;;6247120;28;20024;-88
2022/01/05 04:19:44;;;;;;;20.45;10.68;;;;;;;;;;6253380;28;20012;-88
2022/01/05 04:22:45;;;;;;;17.05;9.25;;;;;;;;;;6247637;28;20411;-88
2022/01/05 04:25:45;;;;;;;18.83;11.70;;;;;;;;;;6250239;28;20014;-88
2022/01/05 04:28:46;;;;;;;20.15;9.88;;;;;;;;;;6249811;28;20018;-88
2022/01/05 04:31:46;;;;;;;15.98;8.80;;;;;;;;;;6247761;28;20025;-88
2022/01/05 04:34:46;;;;;;;19.67;11.45;;;;;;;;;;6249378;28;20022;-88
2022/01/05 04:37:47;;;;;;;22.92;12.15;;;;;;;;;;6247176;28;20632;-88
2022/01/05 04:40:47;;;;;;;18.13;11.27;;;;;;;;;;6247278;28;20017;-88
2022/01/05 04:43:47;;;;;;;18.67;10.90;;;;;;;;;;6248272;28;20026;-88
2022/01/05 04:46:48;;;;;;;19.45;10.05;;;;;;;;;;6267334;28;20012;-87
2022/01/05 04:49:48;;;;;;;18.00;10.00;;;;;;;;;;6272029;28;20515;-88
2022/01/05 04:52:48;;;;;;;19.95;11.40;;;;;;;;;;6271964;28;20025;-88
2022/01/05 04:55:48;;;;;;;18.50;10.98;;;;;;;;;;6271738;28;20025;-88
2022/01/05 04:58:49;;;;;;;17.48;10.20;;;;;;;;;;6271396;28;20380;-88
2022/01/05 05:01:49;;;;;;;22.25;14.05;;;;;;;;;;6272660;28;20028;-88
2022/01/05 05:04:49;;;;;;;22.88;12.60;;;;;;;;;;6272291;28;20684;-88
2022/01/05 05:07:50;;;;;;;20.13;11.52;;;;;;;;;;6272897;28;20044;-88
2022/01/05 05:10:50;;;;;;;22.88;12.80;;;;;;;;;;6272538;28;20035;-88
2022/01/05 05:13:50;;;;;;;22.85;11.82;;;;;;;;;;6271615;28;20017;-88
2022/01/05 05:16:50;;;;;;;16.52;9.40;;;;;;;;;;6271066;28;20151;-88
2022/01/05 05:19:51;;;;;;;23.38;11.00;;;;;;;;;;6247227;28;20032;-88
2022/01/05 05:22:51;;;;;;;18.02;10.43;;;;;;;;;;6246733;28;20021;-87
2022/01/05 05:25:51;;;;;;;23.98;12.20;;;;;;;;;;6258399;28;20019;-88
2022/01/05 05:28:51;;;;;;;22.15;10.48;;;;;;;;;;6270530;28;20078;-88
2022/01/05 05:31:52;;;;;;;23.92;11.95;;;;;;;;;;6271022;28;20028;-88
2022/01/05 05:34:52;;;;;;;23.40;12.55;;;;;;;;;;6272524;28;20228;-88
2022/01/05 05:37:52;;;;;;;27.13;13.60;;;;;;;;;;6263833;28;20049;-88
2022/01/05 05:40:52;;;;;;;26.27;12.30;;;;;;;;;;6247427;28;20030;-88
2022/01/05 05:43:53;;;;;;;23.23;13.45;;;;;;;;;;6262874;28;20044;-88
2022/01/05 05:46:53;;;;;;;29.17;13.95;;;;;;;;;;6250221;28;20049;-88
2022/01/05 05:49:53;;;;;;;23.92;11.90;;;;;;;;;;6246233;28;20377;-88
2022/01/05 05:52:54;;;;;;;19.83;11.43;;;;;;;;;;6245472;28;20022;-88
2022/01/05 05:55:54;;;;;;;23.50;12.85;;;;;;;;;;6248409;28;20028;-88
2022/01/05 05:58:54;;;;;;;25.25;12.20;;;;;;;;;;6269828;28;20021;-88
2022/01/05 06:01:54;;;;;;;21.20;11.63;;;;;;;;;;6253789;28;20025;-88
2022/01/05 06:04:55;;;;;;;25.27;11.90;;;;;;;;;;6245236;28;20087;-88
2022/01/05 06:07:55;;;;;;;24.02;11.55;;;;;;;;;;6262249;28;20036;-88
2022/01/05 06:10:55;;;;;;;22.33;11.60;;;;;;;;;;6247910;28;20060;-88
2022/01/05 06:13:55;;;;;;;22.58;12.40;;;;;;;;;;6244723;28;20057;-88
2022/01/05 06:16:56;;;;;;;21.85;11.65;;;;;;;;;;6269245;28;20032;-88
2022/01/05 06:19:56;;;;;;;20.20;11.27;;;;;;;;;;6261452;28;20045;-88
2022/01/05 06:22:56;;;;;;;23.67;12.30;;;;;;;;;;6244944;28;20025;-88
2022/01/05 06:25:57;;;;;;;23.05;13.20;;;;;;;;;;6248851;28;20024;-87
2022/01/05 06:28:57;;;;;;;22.95;13.80;;;;;;;;;;6250228;28;20415;-88
2022/01/05 06:31:57;;;;;;;24.58;13.23;;;;;;;;;;6246305;28;20397;-88
2022/01/05 06:34:58;;;;;;;31.77;15.90;;;;;;;;;;6244441;28;20037;-88
2022/01/05 06:37:58;;;;;;;25.20;13.00;;;;;;;;;;6245196;28;20136;-88
2022/01/05 06:40:59;;;;;;;23.83;12.70;;;;;;;;;;6243479;28;20025;-87
2022/01/05 06:43:59;;;;;;;22.67;14.32;;;;;;;;;;6247461;28;20029;-87
2022/01/05 06:46:59;;;;;;;24.83;13.88;;;;;;;;;;6247908;28;20025;-88
2022/01/05 06:50:00;;;;;;;27.73;15.77;;;;;;;;;;6244102;28;20033;-88
2022/01/05 06:53:01;;;;;;;29.25;17.15;;;;;;;;;;6252700;28;20111;-87
2022/01/05 06:56:01;;;;;;;30.65;16.65;;;;;;;;;;6263818;28;20025;-88
2022/01/05 06:59:02;;;;;;;29.63;15.60;;;;;;;;;;6260132;28;20575;-87
2022/01/05 07:02:03;;;;;;;28.58;15.75;;;;;;;;;;6253414;28;20657;-87
2022/01/05 07:05:05;;;;;;;26.10;15.68;;;;;;;;;;6269272;28;20062;-88
2022/01/05 07:08:05;;;;;;;31.58;16.38;;;;;;;;;;6257984;28;20349;-88
2022/01/05 07:11:06;;;;;;;25.45;15.75;;;;;;;;;;6244849;28;20100;-88
2022/01/05 07:14:06;;;;;;;29.08;14.90;;;;;;;;;;6245595;28;20167;-88
2022/01/05 07:17:07;;;;;;;29.30;13.70;;;;;;;;;;6257368;28;20010;-88
2022/01/05 07:20:08;;;;;;;24.08;13.50;;;;;;;;;;6252321;28;20013;-88
2022/01/05 07:23:09;;;;;;;36.88;16.80;;;;;;;;;;6254099;28;20033;-88
2022/01/05 07:26:09;;;;;;;37.77;19.97;;;;;;;;;;6250571;28;20048;-88
2022/01/05 07:29:10;;;;;;;34.42;18.90;;;;;;;;;;6257450;28;20268;-88
2022/01/05 07:32:10;;;;;;;31.30;18.73;;;;;;;;;;6247439;28;20060;-88
2022/01/05 07:35:11;;;;;;;30.48;18.63;;;;;;;;;;6250082;28;20424;-88
2022/01/05 07:38:11;;;;;;;37.75;19.40;;;;;;;;;;6253171;28;20045;-89
2022/01/05 07:41:11;;;;;;;36.80;20.08;;;;;;;;;;6247692;28;20082;-88
2022/01/05 07:44:12;;;;;;;34.47;18.65;;;;;;;;;;6247048;28;20044;-88
2022/01/05 07:47:12;;;;;;;34.08;18.40;;;;;;;;;;6256384;28;20017;-88
2022/01/05 07:50:14;;;;;;;43.70;19.67;;;;;;;;;;6266036;28;20021;-88
2022/01/05 07:53:14;;;;;;;34.78;21.50;;;;;;;;;;6250929;28;20465;-88
2022/01/05 07:56:15;;;;;;;34.78;20.02;;;;;;;;;;6258334;28;20064;-88
2022/01/05 07:59:15;;;;;;;40.10;21.63;;;;;;;;;;6250532;28;20021;-88
2022/01/05 08:02:15;;;;;;;38.40;21.85;;;;;;;;;;6249701;28;20020;-88
2022/01/05 08:05:16;;;;;;;37.45;21.77;;;;;;;;;;6249199;28;20025;-88
2022/01/05 08:08:16;;;;;;;34.50;20.85;;;;;;;;;;6250754;28;20010;-88
2022/01/05 08:11:17;;;;;;;42.97;23.88;;;;;;;;;;6248821;28;20017;-88
2022/01/05 08:14:17;;;;;;;39.53;25.08;;;;;;;;;;6247350;28;20029;-88
2022/01/05 08:17:18;;;;;;;41.35;23.08;;;;;;;;;;6258554;28;20032;-88
2022/01/05 08:20:18;;;;;;;38.97;25.08;;;;;;;;;;6249596;28;20764;-88
2022/01/05 08:23:20;;;;;;;38.60;21.65;;;;;;;;;;6254779;28;20024;-89
2022/01/05 08:26:20;;;;;;;34.38;21.00;;;;;;;;;;6269647;28;20028;-88
2022/01/05 08:29:20;;;;;;;38.67;23.38;;;;;;;;;;6253082;28;20384;-89
2022/01/05 08:32:21;;;;;;;40.60;22.85;;;;;;;;;;6255329;28;20021;-88
2022/01/05 08:35:22;;;;;;;42.20;22.02;;;;;;;;;;6260272;28;20039;-89
2022/01/05 08:38:23;;;;;;;39.70;22.10;;;;;;;;;;6252637;28;20540;-89
2022/01/05 08:41:23;;;;;;;44.60;26.23;;;;;;;;;;6257229;28;20035;-89
2022/01/05 08:44:23;;;;;;;48.45;28.58;;;;;;;;;;6254764;28;20045;-89
2022/01/05 08:47:24;;;;;;;45.22;23.98;;;;;;;;;;6271185;28;20107;-89
2022/01/05 08:50:25;;;;;;;50.47;26.60;;;;;;;;;;6263840;28;20112;-89
2022/01/05 08:53:25;;;;;;;46.93;25.90;;;;;;;;;;6268884;28;20029;-89
2022/01/05 08:56:26;;;;;;;47.90;26.35;;;;;;;;;;6269241;28;20047;-88
2022/01/05 08:59:26;;;;;;;43.78;27.77;;;;;;;;;;6262516;28;20045;-89
2022/01/05 09:02:28;;;;;;;50.88;29.98;;;;;;;;;;6259452;28;20025;-88
2022/01/05 09:05:29;;;;;;;52.88;30.38;;;;;;;;;;6271997;28;20457;-88
2022/01/05 09:08:29;;;;;;;52.00;27.58;;;;;;;;;;6261192;28;20025;-89
2022/01/05 09:11:30;;;;;;;56.90;30.52;;;;;;;;;;6246907;28;20685;-89
2022/01/05 09:14:30;;;;;;;49.95;31.35;;;;;;;;;;6246231;28;20033;-89
2022/01/05 09:17:30;;;;;;;51.08;27.75;;;;;;;;;;6246122;28;20032;-89
2022/01/05 09:20:31;;;;;;;53.10;29.85;;;;;;;;;;6245420;28;20028;-89
2022/01/05 09:23:31;;;;;;;46.08;24.58;;;;;;;;;;6250216;28;20018;-89
2022/01/05 09:26:31;;;;;;;60.75;25.33;;;;;;;;;;6253500;28;20028;-89
2022/01/05 09:29:35;;;;;;;48.33;25.95;;;;;;;;;;6269313;28;20074;-89
2022/01/05 09:32:36;;;;;;;36.72;19.10;;;;;;;;;;6263379;28;20029;-89
2022/01/05 09:35:36;;;;;;;34.72;19.02;;;;;;;;;;6247455;28;20508;-89
2022/01/05 09:44:56;;;;;;;34.67;18.38;;;;;;;;;;6256599;28;20037;-90
2022/01/05 09:48:18;;;;;;;29.38;17.05;;;;;;;;;;6257369;28;20465;-88
2022/01/05 09:51:19;;;;;;;31.57;15.87;;;;;;;;;;6260228;28;20029;-89
2022/01/05 09:54:19;;;;;;;28.55;16.55;;;;;;;;;;6246473;28;20029;-89
2022/01/05 09:57:21;;;;;;;33.55;17.05;;;;;;;;;;6245801;28;20025;-89
2022/01/05 10:00:22;;;;;;;30.27;16.30;;;;;;;;;;6246689;28;20073;-89
2022/01/05 10:03:22;;;;;;;34.67;19.65;;;;;;;;;;6264977;28;20021;-89
2022/01/05 10:06:23;;;;;;;30.55;17.38;;;;;;;;;;6268647;28;20492;-89
2022/01/05 10:09:23;;;;;;;39.95;14.95;;;;;;;;;;6270553;28;20025;-89
2022/01/05 10:12:23;;;;;;;34.10;19.77;;;;;;;;;;6261823;28;20074;-89
2022/01/05 10:15:25;;;;;;;28.23;13.55;;;;;;;;;;6245202;28;20749;-90
2022/01/05 10:18:25;;;;;;;37.45;20.10;;;;;;;;;;6245094;28;20481;-89
2022/01/05 10:21:32;;;;;;;32.13;20.05;;;;;;;;;;6245846;28;20083;-89
2022/01/05 10:24:39;;;;;;;41.78;21.20;;;;;;;;;;6245957;28;20017;-89
2022/01/05 10:27:39;;;;;;;42.95;18.67;;;;;;;;;;6274336;28;20021;-89
2022/01/05 10:30:41;;;;;;;38.95;20.17;;;;;;;;;;6268533;28;20026;-89
2022/01/05 10:33:41;;;;;;;36.92;17.70;;;;;;;;;;6248140;28;20045;-89
2022/01/05 10:36:43;;;;;;;31.05;17.55;;;;;;;;;;6248330;28;20057;-89
2022/01/05 10:39:43;;;;;;;25.77;16.10;;;;;;;;;;6249078;28;20512;-89
2022/01/05 10:42:44;;;;;;;30.85;17.80;;;;;;;;;;6251054;28;20029;-89
2022/01/05 10:45:47;;;;;;;35.22;20.48;;;;;;;;;;6236229;28;20044;-89
2022/01/05 10:48:52;;;;;;;25.50;13.65;;;;;;;;;;6247387;28;20047;-89
2022/01/05 10:51:53;;;;;;;23.88;13.15;;;;;;;;;;6246917;28;20091;-89
2022/01/05 10:55:13;;;;;;;42.33;15.32;;;;;;;;;;6254468;28;20505;-89
2022/01/05 10:58:17;;;;;;;33.53;18.63;;;;;;;;;;6254601;28;20030;-89
2022/01/05 11:01:27;;;;;;;31.08;14.02;;;;;;;;;;6252926;28;20025;-89
2022/01/05 11:04:27;;;;;;;31.50;15.65;;;;;;;;;;6263815;28;20116;-89
2022/01/05 11:07:31;;;;;;;28.35;17.13;;;;;;;;;;6253426;28;20035;-89
2022/01/05 11:10:32;;;;;;;21.33;11.23;;;;;;;;;;6244441;28;20090;-89
2022/01/05 11:13:32;;;;;;;31.95;16.65;;;;;;;;;;6262201;28;20020;-89
2022/01/05 11:16:33;;;;;;;33.13;15.38;;;;;;;;;;6250050;28;20039;-89
2022/01/05 11:19:36;;;;;;;35.95;16.33;;;;;;;;;;6253598;28;20409;-89
2022/01/05 11:22:36;;;;;;;26.48;12.77;;;;;;;;;;6262583;28;20029;-89
2022/01/05 11:25:37;;;;;;;26.45;13.90;;;;;;;;;;6252610;28;20106;-89
2022/01/05 11:28:38;;;;;;;22.35;10.10;;;;;;;;;;6267358;28;20021;-89
2022/01/05 11:31:38;;;;;;;31.00;16.30;;;;;;;;;;6273378;28;20028;-89
2022/01/05 11:34:39;;;;;;;29.67;16.10;;;;;;;;;;6275682;28;20114;-89
2022/01/05 11:37:39;;;;;;;24.30;11.77;;;;;;;;;;6255745;28;20477;-89
2022/01/05 11:40:49;;;;;;;26.73;14.90;;;;;;;;;;6251098;28;20033;-89
2022/01/05 11:43:50;;;;;;;28.25;13.48;;;;;;;;;;6260123;28;20503;-89
2022/01/05 11:46:50;;;;;;;27.42;14.65;;;;;;;;;;6261350;28;20013;-89
2022/01/05 11:49:52;;;;;;;24.98;13.35;;;;;;;;;;6255102;28;20018;-89
2022/01/05 11:53:08;;;;;;;22.48;10.70;;;;;;;;;;6256595;28;20036;-89
2022/01/05 11:56:14;;;;;;;18.00;10.48;;;;;;;;;;6265760;28;20028;-89
2022/01/05 11:59:19;;;;;;;24.27;13.63;;;;;;;;;;6260109;28;20623;-88
2022/01/05 12:02:20;;;;;;;23.38;14.02;;;;;;;;;;6256612;28;20009;-89
2022/01/05 12:05:20;;;;;;;21.70;13.10;;;;;;;;;;6255801;28;20171;-89
2022/01/05 12:08:59;;;;;;;23.65;13.43;;;;;;;;;;6255673;28;20147;-89
2022/01/05 12:12:19;;;;;;;23.95;11.43;;;;;;;;;;6157875;28;20027;-89
2022/01/05 12:15:43;;;;;;;19.13;10.98;;;;;;;;;;6169982;28;20475;-89
2022/01/05 12:18:45;;;;;;;28.05;13.77;;;;;;;;;;6250031;28;20048;-89
2022/01/05 12:21:46;;;;;;;16.25;10.13;;;;;;;;;;6250255;28;20025;-89
2022/01/05 12:24:53;;;;;;;17.80;9.52;;;;;;;;;;6256521;28;20021;-89
2022/01/05 12:28:02;;;;;;;24.70;13.05;;;;;;;;;;6292600;28;20094;-89
2022/01/05 12:31:03;;;;;;;22.83;10.73;;;;;;;;;;6260888;28;20075;-89
2022/01/05 12:34:04;;;;;;;18.90;11.10;;;;;;;;;;6257213;28;20054;-89
2022/01/05 12:37:04;;;;;;;18.15;11.68;;;;;;;;;;6259332;28;20017;-88
2022/01/05 12:40:30;;;;;;;20.40;11.57;;;;;;;;;;6257591;28;20025;-89
2022/01/05 12:43:34;;;;;;;22.13;9.18;;;;;;;;;;6254486;28;20088;-89
2022/01/05 12:46:36;;;;;;;24.25;13.50;;;;;;;;;;6260914;28;20040;-89
2022/01/05 12:49:39;;;;;;;;;;;;;;;;;;6272819;28;20028;-89
2022/01/05 12:52:40;;;;;;;28.02;13.82;;;;;;;;;;6254127;28;19998;-89
2022/01/05 12:55:45;;;;;;;25.55;13.10;;;;;;;;;;6249002;28;20067;-89
2022/01/05 12:58:48;;;;;;;31.85;11.57;;;;;;;;;;6272950;28;20013;-89
2022/01/05 13:01:50;;;;;;;12.70;8.00;;;;;;;;;;6273413;28;20024;-89
2022/01/05 13:04:51;;;;;;;27.48;14.30;;;;;;;;;;6263323;28;20018;-89
2022/01/05 13:07:51;;;;;;;29.00;14.95;;;;;;;;;;6246822;28;20067;-89
2022/01/05 13:10:51;;;;;;;34.38;16.20;;;;;;;;;;6248621;28;20004;-89
2022/01/05 13:13:51;;;;;;;24.80;13.93;;;;;;;;;;6249093;28;20057;-88
2022/01/05 13:16:54;;;;;;;33.25;16.77;;;;;;;;;;6270544;28;20438;-89
2022/01/05 13:20:11;;;;;;;30.33;13.73;;;;;;;;;;6253715;28;20027;-88
2022/01/05 13:23:11;;;;;;;39.25;18.45;;;;;;;;;;6259665;28;20018;-88
2022/01/05 13:26:12;;;;;;;36.95;17.95;;;;;;;;;;6247970;28;20026;-89
2022/01/05 13:29:18;;;;;;;30.33;16.63;;;;;;;;;;6247647;28;20385;-89
2022/01/05 13:32:20;;;;;;;28.00;15.85;;;;;;;;;;6246408;28;20021;-88
2022/01/05 13:35:23;;;;;;;40.40;22.17;;;;;;;;;;6246404;28;20078;-88
2022/01/05 13:38:23;;;;;;;24.02;12.82;;;;;;;;;;6250157;28;20045;-88
2022/01/05 13:41:26;;;;;;;8.73;5.10;;;;;;;;;;6260348;28;22027;-88
2022/01/05 13:44:26;;;;;;;24.65;11.13;;;;;;;;;;6262388;28;20033;-89
2022/01/05 13:47:27;;;;;;;24.08;11.48;;;;;;;;;;6252109;28;20049;-88
2022/01/05 13:50:33;;;;;;;25.02;13.93;;;;;;;;;;6257813;28;20021;-89
2022/01/05 13:53:34;;;;;;;32.85;16.20;;;;;;;;;;6262354;28;20519;-89
2022/01/05 13:56:39;;;;;;;27.50;13.55;;;;;;;;;;6261055;28;20017;-89
2022/01/05 13:59:40;;;;;;;52.53;22.40;;;;;;;;;;6255948;28;20099;-89
2022/01/05 14:02:41;;;;;;;61.23;26.97;;;;;;;;;;6259225;28;20096;-88
2022/01/05 14:05:43;;;;;;;38.35;16.92;;;;;;;;;;6258040;28;20152;-89
2022/01/05 14:08:44;;;;;;;26.70;13.98;;;;;;;;;;6250028;28;20581;-89
2022/01/05 14:11:44;;;;;;;15.48;9.30;;;;;;;;;;6248115;28;20025;-88
2022/01/05 14:14:55;;;;;;;35.72;15.40;;;;;;;;;;6247719;28;20017;-88
2022/01/05 14:18:01;;;;;;;18.08;7.10;;;;;;;;;;6248685;28;20112;-89
2022/01/05 14:21:02;;;;;;;18.83;9.32;;;;;;;;;;6247173;28;20041;-89
2022/01/05 14:24:02;;;;;;;20.73;11.68;;;;;;;;;;6256729;28;20017;-89
2022/01/05 14:27:03;;;;;;;28.27;12.63;;;;;;;;;;6254793;28;20013;-89
2022/01/05 14:30:06;;;;;;;36.87;17.20;;;;;;;;;;6259988;28;20014;-89
2022/01/05 14:33:06;;;;;;;40.53;24.38;;;;;;;;;;6253791;28;20024;-89
2022/01/05 14:36:15;;;;;;;35.28;17.02;;;;;;;;;;6258086;28;20020;-89
2022/01/05 14:39:17;;;;;;;33.35;19.52;;;;;;;;;;6250502;28;20045;-89
2022/01/05 14:42:18;;;;;;;35.80;19.88;;;;;;;;;;6244193;28;20032;-89
2022/01/05 14:45:18;;;;;;;21.17;12.23;;;;;;;;;;6253082;28;20495;-89
2022/01/05 14:48:19;;;;;;;30.75;17.08;;;;;;;;;;6255941;28;20033;-89
2022/01/05 14:51:19;;;;;;;32.35;18.95;;;;;;;;;;6264488;28;20111;-89
2022/01/05 14:54:27;;;;;;;29.88;13.68;;;;;;;;;;6271043;28;20043;-89
2022/01/05 14:57:27;;;;;;;38.90;19.58;;;;;;;;;;6264928;28;20025;-89
2022/01/05 15:00:28;;;;;;;29.55;16.90;;;;;;;;;;6254858;28;20032;-89
2022/01/05 15:03:28;;;;;;;23.83;12.85;;;;;;;;;;6258479;28;20022;-89
2022/01/05 15:06:30;;;;;;;16.95;10.73;;;;;;;;;;6261155;28;20017;-89
2022/01/05 15:09:30;;;;;;;23.33;11.48;;;;;;;;;;6253660;28;20028;-89
2022/01/05 15:12:31;;;;;;;30.55;17.27;;;;;;;;;;6261146;28;20017;-88
2022/01/05 15:15:31;;;;;;;24.48;12.43;;;;;;;;;;6254462;28;20018;-89
2022/01/05 15:18:31;;;;;;;21.70;12.85;;;;;;;;;;6252710;28;20618;-89
2022/01/05 15:21:32;;;;;;;40.83;22.23;;;;;;;;;;6258388;28;20025;-89
2022/01/05 15:24:32;;;;;;;45.97;26.52;;;;;;;;;;6257944;28;20606;-89
2022/01/05 15:27:33;;;;;;;47.58;27.42;;;;;;;;;;6263795;28;20013;-89
2022/01/05 15:30:33;;;;;;;45.67;24.30;;;;;;;;;;6271456;28;20400;-89
2022/01/05 15:33:33;;;;;;;87.13;45.00;;;;;;;;;;6271980;28;20502;-88
2022/01/05 15:36:34;;;;;;;31.10;18.10;;;;;;;;;;6252532;28;20026;-89
2022/01/05 15:39:34;;;;;;;26.42;13.80;;;;;;;;;;6252080;28;20080;-89
2022/01/05 15:42:34;;;;;;;21.02;11.70;;;;;;;;;;6251002;28;20024;-89
2022/01/05 15:45:35;;;;;;;27.73;13.90;;;;;;;;;;6259554;28;20017;-89
2022/01/05 15:48:36;;;;;;;20.67;10.18;;;;;;;;;;6250272;28;20033;-89
2022/01/05 15:51:36;;;;;;;34.22;16.25;;;;;;;;;;6248803;28;20439;-89
2022/01/05 15:54:42;;;;;;;36.97;21.00;;;;;;;;;;6262742;28;20033;-88
2022/01/05 15:57:56;;;;;;;22.10;10.10;;;;;;;;;;6263097;28;20051;-89
2022/01/05 16:04:17;;;;;;;22.13;9.57;;;;;;;;;;6247402;28;20034;-89
2022/01/05 16:07:18;;;;;;;21.15;8.77;;;;;;;;;;6244904;28;20024;-89
2022/01/05 16:10:21;;;;;;;20.10;8.88;;;;;;;;;;6244957;28;20074;-89
2022/01/05 16:13:22;;;;;;;25.98;11.32;;;;;;;;;;6248080;28;20036;-89
2022/01/05 16:16:24;;;;;;;18.70;6.95;;;;;;;;;;6249213;28;20431;-89
2022/01/05 16:19:24;;;;;;;23.10;9.68;;;;;;;;;;6250240;28;20124;-89
2022/01/05 16:22:24;;;;;;;23.50;9.95;;;;;;;;;;6258971;28;20020;-89
2022/01/05 16:25:25;;;;;;;21.30;8.45;;;;;;;;;;6267148;28;20362;-88
2022/01/05 16:28:26;;;;;;;20.48;10.52;;;;;;;;;;6268121;28;20058;-89
2022/01/05 16:31:26;;;;;;;15.38;8.68;;;;;;;;;;6248729;28;20563;-88
2022/01/05 16:34:27;;;;;;;14.38;6.38;;;;;;;;;;6248428;28;20477;-89
2022/01/05 16:37:27;;;;;;;20.10;8.02;;;;;;;;;;6250987;28;20408;-89
2022/01/05 16:40:28;;;;;;;18.25;6.85;;;;;;;;;;6255542;28;20060;-89
2022/01/05 16:43:28;;;;;;;24.15;9.95;;;;;;;;;;6261278;28;20059;-89
2022/01/05 16:46:31;;;;;;;15.25;7.85;;;;;;;;;;6265761;28;20088;-89
2022/01/05 16:49:31;;;;;;;15.20;8.48;;;;;;;;;;6262490;28;20155;-89
2022/01/05 16:52:32;;;;;;;22.35;9.85;;;;;;;;;;6257625;28;20030;-89
2022/01/05 16:55:34;;;;;;;23.48;11.93;;;;;;;;;;6260067;28;20046;-89
2022/01/05 17:01:53;;;;;;;11.65;6.53;;;;;;;;;;6248801;28;20057;-88
2022/01/05 17:04:53;;;;;;;111.60;42.22;;;;;;;;;;6247752;28;20027;-89
2022/01/05 17:07:56;;;;;;;21.38;9.40;;;;;;;;;;6248228;28;20029;-89
2022/01/05 17:10:56;;;;;;;20.83;9.40;;;;;;;;;;6249157;28;20040;-88
2022/01/05 17:13:57;;;;;;;16.33;7.57;;;;;;;;;;6246402;28;20029;-89
2022/01/05 17:16:58;;;;;;;16.63;7.63;;;;;;;;;;6265034;28;20469;-89
2022/01/05 17:19:58;;;;;;;18.50;8.63;;;;;;;;;;6261506;28;20083;-89
2022/01/05 17:22:58;;;;;;;20.67;9.50;;;;;;;;;;6266729;28;20524;-89
2022/01/05 17:25:58;;;;;;;50.85;26.13;;;;;;;;;;6251516;28;20025;-89
2022/01/05 17:28:59;;;;;;;49.53;23.67;;;;;;;;;;6251703;28;20053;-89
2022/01/05 17:32:01;;;;;;;56.17;25.70;;;;;;;;;;6257900;28;20112;-89
2022/01/05 17:35:02;;;;;;;29.90;16.08;;;;;;;;;;6259330;28;20025;-89
2022/01/05 17:38:02;;;;;;;43.33;16.48;;;;;;;;;;6258874;28;20067;-89
2022/01/05 17:41:03;;;;;;;33.67;15.68;;;;;;;;;;6249619;28;20033;-89
2022/01/05 17:44:03;;;;;;;45.95;19.58;;;;;;;;;;6249192;28;20768;-89
2022/01/05 17:47:04;;;;;;;51.70;21.40;;;;;;;;;;6266200;28;20021;-89
2022/01/05 17:50:05;;;;;;;41.38;17.83;;;;;;;;;;6258390;28;20056;-89
2022/01/05 17:53:07;;;;;;;39.87;18.43;;;;;;;;;;6254653;28;20028;-89